sensor_id;sensor_type;location;lat;lon;timestamp;temperature;humidity
5775;DHT22;2913;51.120;6.772;2023-04-06T00:02:04;4.50;99.90
5775;DHT22;2913;51.120;6.772;2023-04-06T00:04:30;4.40;99.90
5775;DHT22;2913;51.120;6.772;2023-04-06T00:06:58;4.40;99.90
5775;DHT22;2913;51.120;6.772;2023-04-06T00:09:23;4.40;99.90
5775;DHT22;2913;51.120;6.772;2023-04-06T00:11:49;4.30;99.90
5775;DHT22;2913;51.120;6.772;2023-04-06T00:14:15;4.30;99.90
5775;DHT22;2913;51.120;6.772;2023-04-06T00:16:45;4.40;99.90
5775;DHT22;2913;51.120;6.772;2023-04-06T00:19:15;4.30;99.90
5775;DHT22;2913;51.120;6.772;2023-04-06T00:21:43;4.30;99.90
5775;DHT22;2913;51.120;6.772;2023-04-06T00:24:09;4.40;99.90
5775;DHT22;2913;51.120;6.772;2023-04-06T00:26:34;4.30;99.90
5775;DHT22;2913;51.120;6.772;2023-04-06T00:29:00;4.30;99.90
5775;DHT22;2913;51.120;6.772;2023-04-06T00:31:25;4.20;99.90
5775;DHT22;2913;51.120;6.772;2023-04-06T00:33:53;4.20;99.90
5775;DHT22;2913;51.120;6.772;2023-04-06T00:36:19;4.20;99.90
5775;DHT22;2913;51.120;6.772;2023-04-06T00:38:45;4.20;99.90
5775;DHT22;2913;51.120;6.772;2023-04-06T00:41:13;4.20;99.90
5775;DHT22;2913;51.120;6.772;2023-04-06T00:43:44;4.20;99.90
5775;DHT22;2913;51.120;6.772;2023-04-06T00:46:09;4.20;99.90
5775;DHT22;2913;51.120;6.772;2023-04-06T00:48:40;4.10;99.90
5775;DHT22;2913;51.120;6.772;2023-04-06T00:51:08;4.10;99.90
5775;DHT22;2913;51.120;6.772;2023-04-06T00:53:34;4.10;99.90
5775;DHT22;2913;51.120;6.772;2023-04-06T00:56:01;4.00;99.90
5775;DHT22;2913;51.120;6.772;2023-04-06T00:58:27;3.90;99.90
5775;DHT22;2913;51.120;6.772;2023-04-06T01:00:53;4.00;99.90
5775;DHT22;2913;51.120;6.772;2023-04-06T01:03:19;3.90;99.90
5775;DHT22;2913;51.120;6.772;2023-04-06T01:05:47;3.90;99.90
5775;DHT22;2913;51.120;6.772;2023-04-06T01:08:12;3.80;99.90
5775;DHT22;2913;51.120;6.772;2023-04-06T01:10:38;3.80;99.90
5775;DHT22;2913;51.120;6.772;2023-04-06T01:13:04;3.70;99.90
5775;DHT22;2913;51.120;6.772;2023-04-06T01:15:33;3.80;99.90
5775;DHT22;2913;51.120;6.772;2023-04-06T01:18:00;3.80;99.90
5775;DHT22;2913;51.120;6.772;2023-04-06T01:20:32;3.80;99.90
5775;DHT22;2913;51.120;6.772;2023-04-06T01:22:58;3.70;99.90
5775;DHT22;2913;51.120;6.772;2023-04-06T01:25:23;3.70;99.90
5775;DHT22;2913;51.120;6.772;2023-04-06T01:27:49;3.70;99.90
5775;DHT22;2913;51.120;6.772;2023-04-06T01:30:15;3.70;99.90
5775;DHT22;2913;51.120;6.772;2023-04-06T01:32:42;3.60;99.90
5775;DHT22;2913;51.120;6.772;2023-04-06T01:35:11;3.70;99.90
5775;DHT22;2913;51.120;6.772;2023-04-06T01:37:36;3.60;99.90
5775;DHT22;2913;51.120;6.772;2023-04-06T01:40:08;3.60;99.90
5775;DHT22;2913;51.120;6.772;2023-04-06T01:42:34;3.60;99.90
5775;DHT22;2913;51.120;6.772;2023-04-06T01:44:59;3.70;99.90
5775;DHT22;2913;51.120;6.772;2023-04-06T01:47:27;3.70;99.90
5775;DHT22;2913;51.120;6.772;2023-04-06T01:49:53;3.60;99.90
5775;DHT22;2913;51.120;6.772;2023-04-06T01:52:21;3.60;99.90
5775;DHT22;2913;51.120;6.772;2023-04-06T01:54:52;3.60;99.90
5775;DHT22;2913;51.120;6.772;2023-04-06T01:57:20;3.50;99.90
5775;DHT22;2913;51.120;6.772;2023-04-06T01:59:45;3.50;99.90
5775;DHT22;2913;51.120;6.772;2023-04-06T02:02:11;3.40;99.90
5775;DHT22;2913;51.120;6.772;2023-04-06T02:04:41;3.40;99.90
5775;DHT22;2913;51.120;6.772;2023-04-06T02:07:07;3.40;99.90
5775;DHT22;2913;51.120;6.772;2023-04-06T02:09:32;3.50;99.90
5775;DHT22;2913;51.120;6.772;2023-04-06T02:11:58;3.40;99.90
5775;DHT22;2913;51.120;6.772;2023-04-06T02:14:25;3.50;99.90
5775;DHT22;2913;51.120;6.772;2023-04-06T02:16:51;3.50;99.90
5775;DHT22;2913;51.120;6.772;2023-04-06T02:19:16;3.50;99.90
5775;DHT22;2913;51.120;6.772;2023-04-06T02:21:42;3.50;99.90
5775;DHT22;2913;51.120;6.772;2023-04-06T02:24:08;3.50;99.90
5775;DHT22;2913;51.120;6.772;2023-04-06T02:26:36;3.40;99.90
5775;DHT22;2913;51.120;6.772;2023-04-06T02:29:02;3.40;99.90
5775;DHT22;2913;51.120;6.772;2023-04-06T02:31:28;3.30;99.90
5775;DHT22;2913;51.120;6.772;2023-04-06T02:33:53;3.40;99.90
5775;DHT22;2913;51.120;6.772;2023-04-06T02:36:19;3.40;99.90
5775;DHT22;2913;51.120;6.772;2023-04-06T02:38:45;3.40;99.90
5775;DHT22;2913;51.120;6.772;2023-04-06T02:41:11;3.40;99.90
5775;DHT22;2913;51.120;6.772;2023-04-06T02:43:36;3.40;99.90
5775;DHT22;2913;51.120;6.772;2023-04-06T02:46:02;3.40;99.90
5775;DHT22;2913;51.120;6.772;2023-04-06T02:48:28;3.40;99.90
5775;DHT22;2913;51.120;6.772;2023-04-06T02:50:53;3.40;99.90
5775;DHT22;2913;51.120;6.772;2023-04-06T02:53:19;3.40;99.90
5775;DHT22;2913;51.120;6.772;2023-04-06T02:55:45;3.30;99.90
5775;DHT22;2913;51.120;6.772;2023-04-06T02:58:11;3.30;99.90
5775;DHT22;2913;51.120;6.772;2023-04-06T03:00:39;3.20;99.90
5775;DHT22;2913;51.120;6.772;2023-04-06T03:03:05;3.20;99.90
5775;DHT22;2913;51.120;6.772;2023-04-06T03:05:33;3.20;99.90
5775;DHT22;2913;51.120;6.772;2023-04-06T03:07:59;3.20;99.90
5775;DHT22;2913;51.120;6.772;2023-04-06T03:10:24;3.20;99.90
5775;DHT22;2913;51.120;6.772;2023-04-06T03:12:52;3.10;99.90
5775;DHT22;2913;51.120;6.772;2023-04-06T03:15:18;3.10;99.90
5775;DHT22;2913;51.120;6.772;2023-04-06T03:17:44;3.20;99.90
5775;DHT22;2913;51.120;6.772;2023-04-06T03:20:09;3.20;99.90
5775;DHT22;2913;51.120;6.772;2023-04-06T03:22:35;3.20;99.90
5775;DHT22;2913;51.120;6.772;2023-04-06T03:25:01;3.10;99.90
5775;DHT22;2913;51.120;6.772;2023-04-06T03:27:27;3.20;99.90
5775;DHT22;2913;51.120;6.772;2023-04-06T03:29:52;3.10;99.90
5775;DHT22;2913;51.120;6.772;2023-04-06T03:32:18;3.10;99.90
5775;DHT22;2913;51.120;6.772;2023-04-06T03:34:43;3.10;99.90
5775;DHT22;2913;51.120;6.772;2023-04-06T03:37:09;3.10;99.90
5775;DHT22;2913;51.120;6.772;2023-04-06T03:39:35;3.10;99.90
5775;DHT22;2913;51.120;6.772;2023-04-06T03:42:03;3.10;99.90
5775;DHT22;2913;51.120;6.772;2023-04-06T03:44:31;3.10;99.90
5775;DHT22;2913;51.120;6.772;2023-04-06T03:46:57;3.10;99.90
5775;DHT22;2913;51.120;6.772;2023-04-06T03:49:22;3.10;99.90
5775;DHT22;2913;51.120;6.772;2023-04-06T03:51:48;3.10;99.90
5775;DHT22;2913;51.120;6.772;2023-04-06T03:54:14;3.10;99.90
5775;DHT22;2913;51.120;6.772;2023-04-06T03:56:39;3.10;99.90
5775;DHT22;2913;51.120;6.772;2023-04-06T03:59:07;3.10;99.90
5775;DHT22;2913;51.120;6.772;2023-04-06T04:01:33;3.10;99.90
5775;DHT22;2913;51.120;6.772;2023-04-06T04:03:58;3.10;99.90
5775;DHT22;2913;51.120;6.772;2023-04-06T04:06:26;3.00;99.90
5775;DHT22;2913;51.120;6.772;2023-04-06T04:08:52;3.00;99.90
5775;DHT22;2913;51.120;6.772;2023-04-06T04:11:17;3.00;99.90
5775;DHT22;2913;51.120;6.772;2023-04-06T04:13:43;2.90;99.90
5775;DHT22;2913;51.120;6.772;2023-04-06T04:16:09;2.90;99.90
5775;DHT22;2913;51.120;6.772;2023-04-06T04:18:34;3.00;99.90
5775;DHT22;2913;51.120;6.772;2023-04-06T04:21:03;3.00;99.90
5775;DHT22;2913;51.120;6.772;2023-04-06T04:23:31;2.90;99.90
5775;DHT22;2913;51.120;6.772;2023-04-06T04:25:59;3.00;99.90
5775;DHT22;2913;51.120;6.772;2023-04-06T04:28:27;3.00;99.90
5775;DHT22;2913;51.120;6.772;2023-04-06T04:30:53;3.00;99.90
5775;DHT22;2913;51.120;6.772;2023-04-06T04:33:19;3.00;99.90
5775;DHT22;2913;51.120;6.772;2023-04-06T04:35:44;2.90;99.90
5775;DHT22;2913;51.120;6.772;2023-04-06T04:38:12;2.80;99.90
5775;DHT22;2913;51.120;6.772;2023-04-06T04:40:42;2.90;99.90
5775;DHT22;2913;51.120;6.772;2023-04-06T04:43:08;2.80;99.90
5775;DHT22;2913;51.120;6.772;2023-04-06T04:45:36;2.80;99.90
5775;DHT22;2913;51.120;6.772;2023-04-06T04:48:02;2.80;99.90
5775;DHT22;2913;51.120;6.772;2023-04-06T04:50:30;2.90;99.90
5775;DHT22;2913;51.120;6.772;2023-04-06T04:52:55;2.90;99.90
5775;DHT22;2913;51.120;6.772;2023-04-06T04:55:21;2.90;99.90
5775;DHT22;2913;51.120;6.772;2023-04-06T04:57:47;2.90;99.90
5775;DHT22;2913;51.120;6.772;2023-04-06T05:00:13;2.90;99.90
5775;DHT22;2913;51.120;6.772;2023-04-06T05:02:38;2.80;99.90
5775;DHT22;2913;51.120;6.772;2023-04-06T05:05:05;2.80;99.90
5775;DHT22;2913;51.120;6.772;2023-04-06T05:07:31;2.80;99.90
5775;DHT22;2913;51.120;6.772;2023-04-06T05:09:56;2.80;99.90
5775;DHT22;2913;51.120;6.772;2023-04-06T05:12:24;2.80;99.90
5775;DHT22;2913;51.120;6.772;2023-04-06T05:14:52;2.70;99.90
5775;DHT22;2913;51.120;6.772;2023-04-06T05:17:21;2.70;99.90
5775;DHT22;2913;51.120;6.772;2023-04-06T05:19:46;2.70;99.90
5775;DHT22;2913;51.120;6.772;2023-04-06T05:22:12;3.00;99.90
5775;DHT22;2913;51.120;6.772;2023-04-06T05:24:41;2.90;99.90
5775;DHT22;2913;51.120;6.772;2023-04-06T05:27:11;3.00;99.90
5775;DHT22;2913;51.120;6.772;2023-04-06T05:29:37;3.10;99.90
5775;DHT22;2913;51.120;6.772;2023-04-06T05:32:05;3.50;99.90
5775;DHT22;2913;51.120;6.772;2023-04-06T05:34:31;3.70;99.90
5775;DHT22;2913;51.120;6.772;2023-04-06T05:36:57;3.70;99.90
5775;DHT22;2913;51.120;6.772;2023-04-06T05:39:23;3.90;99.90
5775;DHT22;2913;51.120;6.772;2023-04-06T05:41:51;4.10;99.90
5775;DHT22;2913;51.120;6.772;2023-04-06T05:44:19;4.30;99.90
5775;DHT22;2913;51.120;6.772;2023-04-06T05:46:45;4.40;99.90
5775;DHT22;2913;51.120;6.772;2023-04-06T05:49:10;4.40;99.90
5775;DHT22;2913;51.120;6.772;2023-04-06T05:51:36;4.50;99.90
5775;DHT22;2913;51.120;6.772;2023-04-06T05:54:02;4.50;99.90
5775;DHT22;2913;51.120;6.772;2023-04-06T05:56:30;4.40;99.90
5775;DHT22;2913;51.120;6.772;2023-04-06T05:58:57;4.30;99.90
5775;DHT22;2913;51.120;6.772;2023-04-06T06:01:22;4.30;99.90
5775;DHT22;2913;51.120;6.772;2023-04-06T06:03:48;4.50;99.90
5775;DHT22;2913;51.120;6.772;2023-04-06T06:06:14;4.60;99.90
5775;DHT22;2913;51.120;6.772;2023-04-06T06:08:42;4.60;99.90
5775;DHT22;2913;51.120;6.772;2023-04-06T06:11:07;4.70;99.90
5775;DHT22;2913;51.120;6.772;2023-04-06T06:13:33;4.90;99.90
5775;DHT22;2913;51.120;6.772;2023-04-06T06:16:01;5.00;99.90
5775;DHT22;2913;51.120;6.772;2023-04-06T06:18:30;4.90;99.90
5775;DHT22;2913;51.120;6.772;2023-04-06T06:20:58;5.20;99.90
5775;DHT22;2913;51.120;6.772;2023-04-06T06:23:26;5.40;99.90
5775;DHT22;2913;51.120;6.772;2023-04-06T06:25:52;5.50;99.90
5775;DHT22;2913;51.120;6.772;2023-04-06T06:28:23;5.70;99.90
5775;DHT22;2913;51.120;6.772;2023-04-06T06:30:51;5.70;99.90
5775;DHT22;2913;51.120;6.772;2023-04-06T06:33:19;5.90;99.90
5775;DHT22;2913;51.120;6.772;2023-04-06T06:35:47;6.20;99.90
5775;DHT22;2913;51.120;6.772;2023-04-06T06:38:13;6.40;99.90
5775;DHT22;2913;51.120;6.772;2023-04-06T06:40:41;6.50;99.90
5775;DHT22;2913;51.120;6.772;2023-04-06T06:43:11;6.50;99.90
5775;DHT22;2913;51.120;6.772;2023-04-06T06:45:37;6.60;99.90
5775;DHT22;2913;51.120;6.772;2023-04-06T06:48:05;6.70;99.90
5775;DHT22;2913;51.120;6.772;2023-04-06T06:50:33;6.80;99.90
5775;DHT22;2913;51.120;6.772;2023-04-06T06:53:01;7.30;99.90
5775;DHT22;2913;51.120;6.772;2023-04-06T06:55:27;7.60;99.90
5775;DHT22;2913;51.120;6.772;2023-04-06T06:57:53;7.80;99.90
5775;DHT22;2913;51.120;6.772;2023-04-06T07:00:21;7.90;99.30
5775;DHT22;2913;51.120;6.772;2023-04-06T07:02:49;8.20;99.90
5775;DHT22;2913;51.120;6.772;2023-04-06T07:05:15;8.10;97.10
5775;DHT22;2913;51.120;6.772;2023-04-06T07:07:43;8.10;96.30
5775;DHT22;2913;51.120;6.772;2023-04-06T07:10:10;8.40;95.90
5775;DHT22;2913;51.120;6.772;2023-04-06T07:12:35;8.60;95.20
5775;DHT22;2913;51.120;6.772;2023-04-06T07:15:03;9.00;94.80
5775;DHT22;2913;51.120;6.772;2023-04-06T07:17:30;8.90;95.20
5775;DHT22;2913;51.120;6.772;2023-04-06T07:19:55;9.00;95.50
5775;DHT22;2913;51.120;6.772;2023-04-06T07:22:21;9.00;94.90
5775;DHT22;2913;51.120;6.772;2023-04-06T07:24:47;9.00;95.40
5775;DHT22;2913;51.120;6.772;2023-04-06T07:27:12;8.80;94.70
5775;DHT22;2913;51.120;6.772;2023-04-06T07:29:38;8.90;94.60
5775;DHT22;2913;51.120;6.772;2023-04-06T07:32:04;8.70;94.60
5775;DHT22;2913;51.120;6.772;2023-04-06T07:34:32;8.50;94.90
5775;DHT22;2913;51.120;6.772;2023-04-06T07:37:00;8.50;95.20
5775;DHT22;2913;51.120;6.772;2023-04-06T07:39:26;8.50;95.40
5775;DHT22;2913;51.120;6.772;2023-04-06T07:41:52;8.50;94.10
5775;DHT22;2913;51.120;6.772;2023-04-06T07:44:21;8.80;94.80
5775;DHT22;2913;51.120;6.772;2023-04-06T07:46:46;8.80;94.80
5775;DHT22;2913;51.120;6.772;2023-04-06T07:49:12;8.90;94.80
5775;DHT22;2913;51.120;6.772;2023-04-06T07:51:38;8.80;95.00
5775;DHT22;2913;51.120;6.772;2023-04-06T07:54:07;8.80;94.20
5775;DHT22;2913;51.120;6.772;2023-04-06T07:56:33;8.70;93.70
5775;DHT22;2913;51.120;6.772;2023-04-06T07:59:01;8.80;94.80
5775;DHT22;2913;51.120;6.772;2023-04-06T08:01:28;8.70;94.00
5775;DHT22;2913;51.120;6.772;2023-04-06T08:03:57;8.80;94.20
5775;DHT22;2913;51.120;6.772;2023-04-06T08:06:27;8.90;95.30
5775;DHT22;2913;51.120;6.772;2023-04-06T08:08:55;9.30;94.50
5775;DHT22;2913;51.120;6.772;2023-04-06T08:11:21;9.40;93.60
5775;DHT22;2913;51.120;6.772;2023-04-06T08:13:52;9.40;93.30
5775;DHT22;2913;51.120;6.772;2023-04-06T08:16:18;9.40;92.60
5775;DHT22;2913;51.120;6.772;2023-04-06T08:18:44;9.60;92.70
5775;DHT22;2913;51.120;6.772;2023-04-06T08:21:10;9.80;92.80
5775;DHT22;2913;51.120;6.772;2023-04-06T08:23:36;9.90;92.90
5775;DHT22;2913;51.120;6.772;2023-04-06T08:26:01;9.50;91.20
5775;DHT22;2913;51.120;6.772;2023-04-06T08:28:27;9.30;90.90
5775;DHT22;2913;51.120;6.772;2023-04-06T08:30:53;9.40;91.20
5775;DHT22;2913;51.120;6.772;2023-04-06T08:33:18;9.50;91.40
5775;DHT22;2913;51.120;6.772;2023-04-06T08:35:44;9.60;91.40
5775;DHT22;2913;51.120;6.772;2023-04-06T08:38:10;9.80;91.10
5775;DHT22;2913;51.120;6.772;2023-04-06T08:40:38;9.70;90.80
5775;DHT22;2913;51.120;6.772;2023-04-06T08:43:09;9.80;90.50
5775;DHT22;2913;51.120;6.772;2023-04-06T08:45:36;9.80;91.00
5775;DHT22;2913;51.120;6.772;2023-04-06T08:48:04;10.00;90.50
5775;DHT22;2913;51.120;6.772;2023-04-06T08:50:35;9.90;90.90
5775;DHT22;2913;51.120;6.772;2023-04-06T08:53:01;10.30;90.20
5775;DHT22;2913;51.120;6.772;2023-04-06T08:55:32;10.40;90.30
5775;DHT22;2913;51.120;6.772;2023-04-06T08:57:59;10.40;89.40
5775;DHT22;2913;51.120;6.772;2023-04-06T09:00:25;10.40;88.60
5775;DHT22;2913;51.120;6.772;2023-04-06T09:02:53;10.50;88.50
5775;DHT22;2913;51.120;6.772;2023-04-06T09:05:20;10.50;87.60
5775;DHT22;2913;51.120;6.772;2023-04-06T09:07:47;10.50;87.30
5775;DHT22;2913;51.120;6.772;2023-04-06T09:10:12;10.50;87.90
5775;DHT22;2913;51.120;6.772;2023-04-06T09:12:38;10.60;87.10
5775;DHT22;2913;51.120;6.772;2023-04-06T09:15:06;10.60;87.40
5775;DHT22;2913;51.120;6.772;2023-04-06T09:17:43;10.90;88.70
5775;DHT22;2913;51.120;6.772;2023-04-06T09:20:12;11.00;87.40
5775;DHT22;2913;51.120;6.772;2023-04-06T09:22:41;11.20;87.90
5775;DHT22;2913;51.120;6.772;2023-04-06T09:25:17;11.40;86.60
5775;DHT22;2913;51.120;6.772;2023-04-06T09:27:46;11.40;86.00
5775;DHT22;2913;51.120;6.772;2023-04-06T09:30:14;11.50;85.00
5775;DHT22;2913;51.120;6.772;2023-04-06T09:32:46;11.60;85.90
5775;DHT22;2913;51.120;6.772;2023-04-06T09:35:13;11.80;83.00
5775;DHT22;2913;51.120;6.772;2023-04-06T09:37:39;11.50;81.90
5775;DHT22;2913;51.120;6.772;2023-04-06T09:40:06;11.90;82.90
5775;DHT22;2913;51.120;6.772;2023-04-06T09:42:35;12.00;82.30
5775;DHT22;2913;51.120;6.772;2023-04-06T09:45:06;11.80;80.10
5775;DHT22;2913;51.120;6.772;2023-04-06T09:47:36;12.00;81.20
5775;DHT22;2913;51.120;6.772;2023-04-06T09:50:03;12.20;81.70
5775;DHT22;2913;51.120;6.772;2023-04-06T09:52:33;12.20;81.10
5775;DHT22;2913;51.120;6.772;2023-04-06T09:55:05;12.50;82.90
5775;DHT22;2913;51.120;6.772;2023-04-06T10:00:05;12.70;78.00
5775;DHT22;2913;51.120;6.772;2023-04-06T10:05:26;12.40;77.90
5775;DHT22;2913;51.120;6.772;2023-04-06T10:07:57;12.70;80.10
5775;DHT22;2913;51.120;6.772;2023-04-06T10:10:22;12.80;79.40
5775;DHT22;2913;51.120;6.772;2023-04-06T10:12:48;13.00;80.50
5775;DHT22;2913;51.120;6.772;2023-04-06T10:15:15;13.20;80.30
5775;DHT22;2913;51.120;6.772;2023-04-06T10:17:41;12.90;78.40
5775;DHT22;2913;51.120;6.772;2023-04-06T10:20:16;13.00;78.70
5775;DHT22;2913;51.120;6.772;2023-04-06T10:25:34;13.10;79.40
5775;DHT22;2913;51.120;6.772;2023-04-06T10:28:07;13.40;80.60
5775;DHT22;2913;51.120;6.772;2023-04-06T10:30:42;13.60;79.30
5775;DHT22;2913;51.120;6.772;2023-04-06T10:33:19;13.40;78.10
5775;DHT22;2913;51.120;6.772;2023-04-06T10:35:47;13.60;78.00
5775;DHT22;2913;51.120;6.772;2023-04-06T10:38:13;13.60;77.90
5775;DHT22;2913;51.120;6.772;2023-04-06T10:40:41;13.70;77.60
5775;DHT22;2913;51.120;6.772;2023-04-06T10:43:09;13.80;78.50
5775;DHT22;2913;51.120;6.772;2023-04-06T10:45:38;13.50;77.50
5775;DHT22;2913;51.120;6.772;2023-04-06T10:50:39;13.80;78.90
5775;DHT22;2913;51.120;6.772;2023-04-06T10:53:06;14.00;79.90
5775;DHT22;2913;51.120;6.772;2023-04-06T10:55:34;14.10;79.20
5775;DHT22;2913;51.120;6.772;2023-04-06T10:58:00;14.20;80.00
5775;DHT22;2913;51.120;6.772;2023-04-06T11:00:27;14.20;79.10
5775;DHT22;2913;51.120;6.772;2023-04-06T11:02:59;14.20;79.00
5775;DHT22;2913;51.120;6.772;2023-04-06T11:05:29;14.40;77.70
5775;DHT22;2913;51.120;6.772;2023-04-06T11:07:56;14.30;77.50
5775;DHT22;2913;51.120;6.772;2023-04-06T11:10:26;14.30;78.10
5775;DHT22;2913;51.120;6.772;2023-04-06T11:12:54;14.20;77.80
5775;DHT22;2913;51.120;6.772;2023-04-06T11:15:25;14.20;77.50
5775;DHT22;2913;51.120;6.772;2023-04-06T11:17:57;14.40;78.00
5775;DHT22;2913;51.120;6.772;2023-04-06T11:20:23;14.40;76.60
5775;DHT22;2913;51.120;6.772;2023-04-06T11:22:52;14.60;78.40
5775;DHT22;2913;51.120;6.772;2023-04-06T11:25:18;14.60;76.80
5775;DHT22;2913;51.120;6.772;2023-04-06T11:27:46;14.50;77.00
5775;DHT22;2913;51.120;6.772;2023-04-06T11:30:15;14.40;77.30
5775;DHT22;2913;51.120;6.772;2023-04-06T11:32:45;14.50;77.90
5775;DHT22;2913;51.120;6.772;2023-04-06T11:35:18;14.50;77.50
5775;DHT22;2913;51.120;6.772;2023-04-06T11:37:44;14.50;77.20
5775;DHT22;2913;51.120;6.772;2023-04-06T11:40:10;14.50;77.10
5775;DHT22;2913;51.120;6.772;2023-04-06T11:42:38;14.40;77.10
5775;DHT22;2913;51.120;6.772;2023-04-06T11:45:04;14.60;77.60
5775;DHT22;2913;51.120;6.772;2023-04-06T11:47:34;14.60;77.50
5775;DHT22;2913;51.120;6.772;2023-04-06T11:50:11;14.70;79.10
5775;DHT22;2913;51.120;6.772;2023-04-06T11:52:39;14.80;79.10
5775;DHT22;2913;51.120;6.772;2023-04-06T11:55:17;15.00;78.90
5775;DHT22;2913;51.120;6.772;2023-04-06T11:57:44;15.10;79.80
5775;DHT22;2913;51.120;6.772;2023-04-06T12:00:13;15.20;78.90
5775;DHT22;2913;51.120;6.772;2023-04-06T12:02:40;15.20;77.80
5775;DHT22;2913;51.120;6.772;2023-04-06T12:05:13;15.30;78.60
5775;DHT22;2913;51.120;6.772;2023-04-06T12:07:39;15.30;77.60
5775;DHT22;2913;51.120;6.772;2023-04-06T12:10:05;15.10;77.50
5775;DHT22;2913;51.120;6.772;2023-04-06T12:12:33;15.10;77.40
5775;DHT22;2913;51.120;6.772;2023-04-06T12:14:59;15.00;77.50
5775;DHT22;2913;51.120;6.772;2023-04-06T12:17:25;14.90;76.60
5775;DHT22;2913;51.120;6.772;2023-04-06T12:19:53;15.00;76.30
5775;DHT22;2913;51.120;6.772;2023-04-06T12:22:18;14.90;75.00
5775;DHT22;2913;51.120;6.772;2023-04-06T12:24:44;15.00;74.40
5775;DHT22;2913;51.120;6.772;2023-04-06T12:27:10;14.90;74.00
5775;DHT22;2913;51.120;6.772;2023-04-06T12:29:39;15.00;74.70
5775;DHT22;2913;51.120;6.772;2023-04-06T12:32:07;15.00;75.30
5775;DHT22;2913;51.120;6.772;2023-04-06T12:34:35;15.10;74.50
5775;DHT22;2913;51.120;6.772;2023-04-06T12:37:01;15.20;75.30
5775;DHT22;2913;51.120;6.772;2023-04-06T12:39:27;14.90;75.20
5775;DHT22;2913;51.120;6.772;2023-04-06T12:41:53;14.90;75.70
5775;DHT22;2913;51.120;6.772;2023-04-06T12:44:21;14.90;75.70
5775;DHT22;2913;51.120;6.772;2023-04-06T12:46:47;14.60;75.90
5775;DHT22;2913;51.120;6.772;2023-04-06T12:49:15;14.60;76.40
5775;DHT22;2913;51.120;6.772;2023-04-06T12:51:42;14.60;76.90
5775;DHT22;2913;51.120;6.772;2023-04-06T12:54:08;14.60;77.60
5775;DHT22;2913;51.120;6.772;2023-04-06T12:56:34;14.70;77.70
5775;DHT22;2913;51.120;6.772;2023-04-06T12:59:00;14.60;77.40
5775;DHT22;2913;51.120;6.772;2023-04-06T13:01:30;14.60;77.90
5775;DHT22;2913;51.120;6.772;2023-04-06T13:03:56;14.50;78.20
5775;DHT22;2913;51.120;6.772;2023-04-06T13:06:25;14.50;78.30
5775;DHT22;2913;51.120;6.772;2023-04-06T13:08:54;14.30;79.60
5775;DHT22;2913;51.120;6.772;2023-04-06T13:11:19;14.40;80.30
5775;DHT22;2913;51.120;6.772;2023-04-06T13:13:49;14.50;82.30
5775;DHT22;2913;51.120;6.772;2023-04-06T13:16:15;14.60;82.40
5775;DHT22;2913;51.120;6.772;2023-04-06T13:18:40;14.50;83.40
5775;DHT22;2913;51.120;6.772;2023-04-06T13:21:07;14.20;83.60
5775;DHT22;2913;51.120;6.772;2023-04-06T13:23:35;14.30;85.90
5775;DHT22;2913;51.120;6.772;2023-04-06T13:26:05;14.30;86.80
5775;DHT22;2913;51.120;6.772;2023-04-06T13:28:31;14.40;88.10
5775;DHT22;2913;51.120;6.772;2023-04-06T13:31:01;14.40;86.30
5775;DHT22;2913;51.120;6.772;2023-04-06T13:33:30;14.40;87.80
5775;DHT22;2913;51.120;6.772;2023-04-06T13:35:59;14.40;87.30
5775;DHT22;2913;51.120;6.772;2023-04-06T13:38:27;14.30;86.00
5775;DHT22;2913;51.120;6.772;2023-04-06T13:41:00;14.30;86.10
5775;DHT22;2913;51.120;6.772;2023-04-06T13:43:25;14.20;87.30
5775;DHT22;2913;51.120;6.772;2023-04-06T13:45:56;14.20;86.80
5775;DHT22;2913;51.120;6.772;2023-04-06T13:48:28;14.10;87.70
5775;DHT22;2913;51.120;6.772;2023-04-06T13:50:54;14.00;89.30
5775;DHT22;2913;51.120;6.772;2023-04-06T13:53:20;14.00;90.10
5775;DHT22;2913;51.120;6.772;2023-04-06T13:55:53;13.90;88.40
5775;DHT22;2913;51.120;6.772;2023-04-06T13:58:18;13.80;88.60
5775;DHT22;2913;51.120;6.772;2023-04-06T14:00:48;13.80;89.20
5775;DHT22;2913;51.120;6.772;2023-04-06T14:03:18;13.80;90.00
5775;DHT22;2913;51.120;6.772;2023-04-06T14:05:47;13.60;88.60
5775;DHT22;2913;51.120;6.772;2023-04-06T14:08:13;13.50;87.80
5775;DHT22;2913;51.120;6.772;2023-04-06T14:10:39;13.40;88.50
5775;DHT22;2913;51.120;6.772;2023-04-06T14:13:08;13.30;90.00
5775;DHT22;2913;51.120;6.772;2023-04-06T14:15:34;13.20;90.60
5775;DHT22;2913;51.120;6.772;2023-04-06T14:18:03;12.90;91.40
5775;DHT22;2913;51.120;6.772;2023-04-06T14:20:31;12.80;91.80
5775;DHT22;2913;51.120;6.772;2023-04-06T14:22:57;12.90;92.50
5775;DHT22;2913;51.120;6.772;2023-04-06T14:25:22;12.90;93.70
5775;DHT22;2913;51.120;6.772;2023-04-06T14:27:48;12.80;94.20
5775;DHT22;2913;51.120;6.772;2023-04-06T14:30:16;12.60;93.90
5775;DHT22;2913;51.120;6.772;2023-04-06T14:32:44;12.40;95.10
5775;DHT22;2913;51.120;6.772;2023-04-06T14:35:10;12.30;97.90
5775;DHT22;2913;51.120;6.772;2023-04-06T14:37:38;12.30;99.90
5775;DHT22;2913;51.120;6.772;2023-04-06T14:40:04;12.10;99.90
5775;DHT22;2913;51.120;6.772;2023-04-06T14:42:29;12.00;99.90
5775;DHT22;2913;51.120;6.772;2023-04-06T14:44:55;12.00;99.90
5775;DHT22;2913;51.120;6.772;2023-04-06T14:47:21;11.90;99.90
5775;DHT22;2913;51.120;6.772;2023-04-06T14:49:50;11.80;99.90
5775;DHT22;2913;51.120;6.772;2023-04-06T14:52:21;11.80;99.90
5775;DHT22;2913;51.120;6.772;2023-04-06T14:54:46;11.60;99.90
5775;DHT22;2913;51.120;6.772;2023-04-06T14:57:14;11.50;99.90
5775;DHT22;2913;51.120;6.772;2023-04-06T14:59:40;11.50;99.90
5775;DHT22;2913;51.120;6.772;2023-04-06T15:02:10;11.40;99.90
5775;DHT22;2913;51.120;6.772;2023-04-06T15:04:39;11.30;99.90
5775;DHT22;2913;51.120;6.772;2023-04-06T15:07:05;11.30;99.90
5775;DHT22;2913;51.120;6.772;2023-04-06T15:09:33;11.30;99.90
5775;DHT22;2913;51.120;6.772;2023-04-06T15:11:58;11.20;99.90
5775;DHT22;2913;51.120;6.772;2023-04-06T15:14:26;11.20;99.90
5775;DHT22;2913;51.120;6.772;2023-04-06T15:16:52;11.10;99.90
5775;DHT22;2913;51.120;6.772;2023-04-06T15:19:17;11.00;99.90
5775;DHT22;2913;51.120;6.772;2023-04-06T15:21:45;10.90;99.90
5775;DHT22;2913;51.120;6.772;2023-04-06T15:24:13;10.80;99.90
5775;DHT22;2913;51.120;6.772;2023-04-06T15:26:39;10.80;99.90
5775;DHT22;2913;51.120;6.772;2023-04-06T15:29:04;10.80;99.90
5775;DHT22;2913;51.120;6.772;2023-04-06T15:31:32;10.70;99.90
5775;DHT22;2913;51.120;6.772;2023-04-06T15:34:03;10.60;99.90
5775;DHT22;2913;51.120;6.772;2023-04-06T15:36:31;10.60;99.90
5775;DHT22;2913;51.120;6.772;2023-04-06T15:39:00;10.60;99.90
5775;DHT22;2913;51.120;6.772;2023-04-06T15:41:28;10.60;99.90
5775;DHT22;2913;51.120;6.772;2023-04-06T15:43:54;10.60;99.90
5775;DHT22;2913;51.120;6.772;2023-04-06T15:46:25;10.50;99.90
5775;DHT22;2913;51.120;6.772;2023-04-06T15:48:56;10.50;99.90
5775;DHT22;2913;51.120;6.772;2023-04-06T15:51:22;10.50;99.90
5775;DHT22;2913;51.120;6.772;2023-04-06T15:53:48;10.30;99.90
5775;DHT22;2913;51.120;6.772;2023-04-06T15:56:14;10.30;99.90
5775;DHT22;2913;51.120;6.772;2023-04-06T15:58:40;10.20;99.90
5775;DHT22;2913;51.120;6.772;2023-04-06T16:01:16;10.20;99.90
5775;DHT22;2913;51.120;6.772;2023-04-06T16:03:43;10.10;99.90
5775;DHT22;2913;51.120;6.772;2023-04-06T16:06:09;10.10;99.90
5775;DHT22;2913;51.120;6.772;2023-04-06T16:08:38;10.10;99.90
5775;DHT22;2913;51.120;6.772;2023-04-06T16:11:08;10.10;99.90
5775;DHT22;2913;51.120;6.772;2023-04-06T16:13:36;10.00;99.90
5775;DHT22;2913;51.120;6.772;2023-04-06T16:16:03;10.00;99.90
5775;DHT22;2913;51.120;6.772;2023-04-06T16:18:29;10.00;99.90
5775;DHT22;2913;51.120;6.772;2023-04-06T16:20:57;9.80;99.90